Have a Safe July 4th! 

Flight Track Log - Related Links

Times and Time Zones

All times are in EDT time to prevent confusion due to time zone crossing. See the UPS110 flight status page for this flight to view local times or setup timezone preferences in your user account.

Time Position Orientation Groundspeed Altitude Reporting Facility
EDT Latitude Longitude Course Direction KTS MPH feet Rate Location/Type
Sun 03:01:37 AM 38.1600 -85.7350 253° West 25 29  Level FlightAware ADS-B
Sun 03:01:53 AM 38.1590 -85.7360 218° Southwest 24 28 108 Level FlightAware ADS-B
Sun 03:04:00 AM 38.3646 -85.9480 322° Northwest  Level FlightAware Approximate
Sun 03:04:37 AM 38.1640 -85.7390 322° Northwest 18 21  Level FlightAware ADS-B
Sun 03:05:07 AM 38.1660 -85.7400 339° North 20 23 168 Level FlightAware ADS-B
Sun 03:05:45 AM 38.1700 -85.7410 349° North 20 23 185 Level FlightAware ADS-B
Sun 03:06:17 AM 38.1730 -85.7430 332° Northwest 21 24 213 Level FlightAware ADS-B
Sun 03:06:41 AM 38.1750 -85.7430 360° North 23 26 243 Level FlightAware ADS-B
Sun 03:07:13 AM 38.1790 -85.7440 349° North 24 28 273 Level FlightAware ADS-B
Sun 03:07:41 AM 38.1820 -85.7460 332° Northwest 26 30 325 Level FlightAware ADS-B
Sun 03:08:11 AM 38.1850 -85.7460 360° North 25 29 391 Level FlightAware ADS-B
Sun 03:08:17 AM 38.1850 -85.7470 270° West 18 21 500 Level FlightAware ADS-B
Sun 03:08:46 AM 38.1850 -85.7480 270° West 17 20 529 Level FlightAware ADS-B
Sun 03:09:15 AM 38.1840 -85.7480 180° South 18 21 740 Level FlightAware ADS-B
Sun 03:09:36 AM 38.1770 -85.7450 161° South 115 132 1,227 Level FlightAware ADS-B
Sun 03:09:59 AM 38.1610 -85.7400 166° South 163 188 900 2,432 Climbing FlightAware ADS-B
Sun 03:10:13 AM 38.1500 -85.7380 172° South 163 188 1,500 1,691 Climbing FlightAware ADS-B
Sun 03:11:49 AM 38.0580 -85.7470 322° Northwest 238 274 4,000 1,603 Climbing FlightAware ADS-B
Sun 03:12:00 AM 38.3235 -85.9097 322° Northwest  Level Estimated
Sun 03:12:09 AM 38.0440 -85.7690 231° Southwest 249 287 4,600  Level FlightAware ADS-B
Sun 03:12:21 AM 38.0410 -85.7860 257° West 248 285 5,200 2,700 Climbing FlightAware ADS-B
Sun 03:12:49 AM 38.0530 -85.8240 292° West 263 303 6,400 2,455 Climbing FlightAware ADS-B
Sun 03:13:05 AM 38.0680 -85.8390 322° Northwest 274 315 7,000 2,591 Climbing FlightAware ADS-B
Sun 03:13:33 AM 38.0980 -85.8670 324° Northwest 278 320 8,300 2,679 Climbing FlightAware ADS-B
Sun 03:14:01 AM 38.1270 -85.8950 323° Northwest 282 325 9,500 2,206 Climbing FlightAware ADS-B
Sun 03:14:41 AM 38.1690 -85.9350 323° Northwest 302 348 10,800 1,714 Climbing FlightAware ADS-B
Sun 03:15:25 AM 38.2250 -85.9870 324° Northwest 354 407 11,900 1,765 Climbing FlightAware ADS-B
Sun 03:16:06 AM 38.2840 -86.0340 328° Northwest 387 445 13,300 2,854 Climbing FlightAware ADS-B
Sun 03:16:47 AM 38.3460 -86.0870 326° Northwest 387 445 15,800 3,459 Climbing FlightAware ADS-B
Sun 03:17:31 AM 38.4120 -86.1440 326° Northwest 398 458 18,200 3,070 Climbing FlightAware ADS-B
Sun 03:18:13 AM 38.4770 -86.2010 326° Northwest 406 467 20,200 2,341 Climbing FlightAware ADS-B
Sun 03:18:53 AM 38.5400 -86.2550 326° Northwest 427 491 21,400 2,143 Climbing FlightAware ADS-B
Sun 03:19:37 AM 38.6140 -86.3180 326° Northwest 436 502 23,200 2,233 Climbing FlightAware ADS-B
Sun 03:20:19 AM 38.6840 -86.3790 326° Northwest 444 511 24,600 1,974 Climbing FlightAware ADS-B
Sun 03:20:53 AM 38.7430 -86.4300 326° Northwest 454 522 25,700 1,786 Climbing FlightAware ADS-B
Sun 03:21:43 AM 38.8290 -86.5030 327° Northwest 464 534 27,100 1,516 Climbing FlightAware ADS-B
Sun 03:22:24 AM 38.8750 -86.5420 327° Northwest 464 534 28,000 2,188 Climbing FlightAware ADS-B
Sun 03:23:08 AM 38.9830 -86.6350 326° Northwest 460 529 30,200 2,512 Climbing FlightAware ADS-B
Sun 03:23:50 AM 39.0570 -86.7000 326° Northwest 454 522 31,600 1,880 Climbing FlightAware ADS-B
Sun 03:24:31 AM 39.1280 -86.7620 326° Northwest 454 522 32,800 1,704 Climbing FlightAware ADS-B
Sun 03:25:11 AM 39.1970 -86.8220 326° Northwest 450 518 33,900 1,571 Climbing FlightAware ADS-B
Sun 03:25:55 AM 39.2730 -86.8880 326° Northwest 446 513 35,000 1,357 Climbing FlightAware ADS-B
Sun 03:26:35 AM 39.3410 -86.9490 325° Northwest 445 512 35,800 714 Climbing FlightAware ADS-B
Sun 03:27:19 AM 39.4160 -87.0150 326° Northwest 442 509 36,000 143 Climbing FlightAware ADS-B
Sun 03:27:59 AM 39.4840 -87.0750 326° Northwest 441 507 36,000  Level FlightAware ADS-B
Sun 03:28:43 AM 39.5570 -87.1380 326° Northwest 442 509 36,000  Level FlightAware ADS-B
Sun 03:29:25 AM 39.6290 -87.2010 326° Northwest 441 507 36,000  Level FlightAware ADS-B
Sun 03:30:07 AM 39.6990 -87.2640 325° Northwest 443 510 36,000  Level FlightAware ADS-B
Sun 03:30:48 AM 39.7640 -87.3220 326° Northwest 444 511 36,000  Level FlightAware ADS-B
Sun 03:31:33 AM 39.8460 -87.3950 326° Northwest 446 513 36,000  Level FlightAware ADS-B
Sun 03:32:13 AM 39.9130 -87.4550 326° Northwest 447 514 36,000  Level FlightAware ADS-B
Sun 03:32:55 AM 39.9850 -87.5190 326° Northwest 447 514 36,000  Level FlightAware ADS-B
Sun 03:33:39 AM 40.0600 -87.5870 325° Northwest 448 516 36,000  Level FlightAware ADS-B
Sun 03:34:17 AM 40.1230 -87.6440 325° Northwest 448 516 36,000  Level FlightAware ADS-B
Sun 03:35:01 AM 40.2000 -87.7130 326° Northwest 449 517 36,000  Level FlightAware ADS-B
Sun 03:35:43 AM 40.2710 -87.7780 325° Northwest 449 517 36,000  Level FlightAware ADS-B
Sun 03:36:26 AM 40.3440 -87.8440 325° Northwest 447 514 36,000  Level FlightAware ADS-B
Sun 03:37:09 AM 40.4170 -87.9100 325° Northwest 446 513 36,000  Level FlightAware ADS-B
Sun 03:37:49 AM 40.4860 -87.9730 325° Northwest 445 512 36,000  Level FlightAware ADS-B
Sun 03:38:33 AM 40.5590 -88.0400 325° Northwest 445 512 36,000  Level FlightAware ADS-B
Sun 03:39:13 AM 40.6270 -88.1020 325° Northwest 444 511 36,000  Level FlightAware ADS-B
Sun 03:39:57 AM 40.7010 -88.1710 325° Northwest 443 510 36,000  Level FlightAware ADS-B
Sun 03:40:53 AM 40.7940 -88.2570 325° Northwest 442 509 36,000  Level FlightAware ADS-B
Sun 03:41:33 AM 40.8620 -88.3200 325° Northwest 440 506 36,000  Level FlightAware ADS-B
Sun 03:42:13 AM 40.9280 -88.3810 325° Northwest 440 506 36,000  Level FlightAware ADS-B
Sun 03:42:53 AM 40.9950 -88.4430 325° Northwest 438 504 36,000  Level FlightAware ADS-B
Sun 03:43:39 AM 41.0700 -88.5130 325° Northwest 438 504 36,000  Level FlightAware ADS-B
Sun 03:44:21 AM 41.1410 -88.5800 325° Northwest 437 503 36,000  Level FlightAware ADS-B
Sun 03:45:03 AM 41.2080 -88.6430 325° Northwest 436 502 36,000  Level FlightAware ADS-B
Sun 03:45:43 AM 41.2750 -88.7050 325° Northwest 436 502 36,000  Level FlightAware ADS-B
Sun 03:46:25 AM 41.3450 -88.7710 325° Northwest 436 502 36,000  Level FlightAware ADS-B
Sun 03:47:11 AM 41.4200 -88.8430 324° Northwest 436 502 36,000  Level FlightAware ADS-B
Sun 03:47:47 AM 41.4620 -88.8830 324° Northwest 437 503 36,000  Level FlightAware ADS-B
Sun 03:48:33 AM 41.5540 -88.9700 325° Northwest 437 503 36,000  Level FlightAware ADS-B
Sun 03:49:15 AM 41.6240 -89.0360 325° Northwest 437 503 36,000  Level FlightAware ADS-B
Sun 03:49:58 AM 41.6950 -89.1050 324° Northwest 438 504 36,000  Level FlightAware ADS-B
Sun 03:50:39 AM 41.7620 -89.1680 325° Northwest 438 504 36,000  Level FlightAware ADS-B
Sun 03:51:17 AM 41.8230 -89.2270 324° Northwest 438 504 36,000  Level FlightAware ADS-B
Sun 03:51:57 AM 41.8900 -89.2920 324° Northwest 438 504 36,000  Level FlightAware ADS-B
Sun 03:52:39 AM 41.9590 -89.3580 325° Northwest 438 504 36,000  Level FlightAware ADS-B
Sun 03:53:21 AM 42.0060 -89.4040 324° Northwest 437 503 36,000  Level FlightAware ADS-B
Sun 03:54:01 AM 42.0930 -89.4890 324° Northwest 436 502 36,000  Level FlightAware ADS-B
Sun 03:54:45 AM 42.1650 -89.5590 324° Northwest 436 502 36,000  Level FlightAware ADS-B
Sun 03:55:25 AM 42.2310 -89.6230 324° Northwest 437 503 36,000  Level FlightAware ADS-B
Sun 03:56:11 AM 42.3060 -89.6960 324° Northwest 437 503 36,000  Level FlightAware ADS-B
Sun 03:56:51 AM 42.3710 -89.7610 324° Northwest 438 504 36,000  Level FlightAware ADS-B
Sun 03:57:32 AM 42.4210 -89.8100 324° Northwest 438 504 36,000  Level FlightAware ADS-B
Sun 03:58:13 AM 42.5060 -89.8940 324° Northwest 440 506 36,000  Level FlightAware ADS-B
Sun 03:58:57 AM 42.5800 -89.9660 324° Northwest 441 507 36,000  Level FlightAware ADS-B
Sun 03:59:40 AM 42.6500 -90.0360 324° Northwest 441 507 36,000  Level FlightAware ADS-B
Sun 04:00:22 AM 42.7200 -90.1060 324° Northwest 441 507 36,000  Level FlightAware ADS-B
Sun 04:00:58 AM 42.7380 -90.1240 324° Northwest 440 506 36,000  Level FlightAware ADS-B
Sun 04:01:43 AM 42.8510 -90.2370 324° Northwest 439 505 36,000  Level FlightAware ADS-B
Sun 04:02:27 AM 42.9220 -90.3090 323° Northwest 438 504 36,000  Level FlightAware ADS-B
Sun 04:03:07 AM 42.9880 -90.3750 324° Northwest 437 503 36,000  Level FlightAware ADS-B
Sun 04:03:53 AM 43.0640 -90.4510 324° Northwest 438 504 36,000  Level FlightAware ADS-B
Sun 04:04:34 AM 43.1280 -90.5170 323° Northwest 436 502 36,000  Level FlightAware ADS-B
Sun 04:05:14 AM 43.1940 -90.5840 324° Northwest 435 501 36,000  Level FlightAware ADS-B
Sun 04:05:57 AM 43.2630 -90.6530 324° Northwest 433 498 36,000  Level FlightAware ADS-B
Sun 04:06:40 AM 43.3300 -90.7230 323° Northwest 429 494 36,000  Level FlightAware ADS-B
Sun 04:07:19 AM 43.3820 -90.7750 324° Northwest 427 491 36,000  Level FlightAware ADS-B
Sun 04:08:03 AM 43.4630 -90.8580 323° Northwest 424 488 36,000  Level FlightAware ADS-B
Sun 04:08:46 AM 43.5280 -90.9260 323° Northwest 420 483 36,000  Level FlightAware ADS-B
Sun 04:09:24 AM 43.5880 -90.9870 324° Northwest 417 480 36,000  Level FlightAware ADS-B
Sun 04:10:06 AM 43.6520 -91.0540 323° Northwest 414 476 36,000  Level FlightAware ADS-B
Sun 04:10:48 AM 43.7160 -91.1200 323° Northwest 410 472 36,000  Level FlightAware ADS-B
Sun 04:11:31 AM 43.7810 -91.1890 323° Northwest 407 468 36,000  Level FlightAware ADS-B
Sun 04:12:20 AM 43.8540 -91.2640 323° Northwest 405 466 36,000  Level FlightAware ADS-B
Sun 04:13:02 AM 43.9170 -91.3300 323° Northwest 406 467 36,000  Level FlightAware ADS-B
Sun 04:13:34 AM 43.9650 -91.3810 323° Northwest 407 468 36,000  Level FlightAware ADS-B
Sun 04:14:25 AM 44.0420 -91.4620 323° Northwest 408 470 36,000  Level FlightAware ADS-B
Sun 04:15:05 AM 44.1020 -91.5260 323° Northwest 410 472 36,000  Level FlightAware ADS-B
Sun 04:15:49 AM 44.1690 -91.5960 323° Northwest 410 472 36,000  Level FlightAware ADS-B
Sun 04:16:28 AM 44.2260 -91.6570 323° Northwest 410 472 36,000  Level FlightAware ADS-B
Sun 04:17:12 AM 44.2920 -91.7280 322° Northwest 410 472 36,000  Level FlightAware ADS-B
Sun 04:17:51 AM 44.3510 -91.7900 323° Northwest 408 470 36,000  Level FlightAware ADS-B
Sun 04:18:38 AM 44.4240 -91.8680 323° Northwest 409 471 36,000  Level FlightAware ADS-B
Sun 04:19:18 AM 44.4830 -91.9310 323° Northwest 408 470 36,000  Level FlightAware ADS-B
Sun 04:19:58 AM 44.5430 -91.9960 322° Northwest 407 468 36,000  Level FlightAware ADS-B
Sun 04:20:26 AM 44.5740 -92.0290 323° Northwest 408 470 36,000  Level FlightAware ADS-B
Sun 04:21:38 AM 44.6900 -92.1550 322° Northwest 407 468 36,000  Level FlightAware ADS-B
Sun 04:22:19 AM 44.7510 -92.2220 322° Northwest 407 468 36,000  Level FlightAware ADS-B
Sun 04:23:03 AM 44.8170 -92.2930 323° Northwest 406 467 36,000  Level FlightAware ADS-B
Sun 04:23:43 AM 44.8760 -92.3580 322° Northwest 407 468 36,000  Level FlightAware ADS-B
Sun 04:24:28 AM 44.9430 -92.4320 322° Northwest 409 471 36,000  Level FlightAware ADS-B
Sun 04:25:08 AM 45.0020 -92.4970 322° Northwest 411 473 36,000  Level FlightAware ADS-B
Sun 04:25:48 AM 45.0630 -92.5630 323° Northwest 411 473 36,000  Level FlightAware ADS-B
Sun 04:26:33 AM 45.1300 -92.6370 322° Northwest 412 474 36,000  Level FlightAware ADS-B
Sun 04:27:18 AM 45.1940 -92.7090 322° Northwest 412 474 36,000  Level FlightAware ADS-B
Sun 04:27:53 AM 45.2480 -92.7690 322° Northwest 412 474 36,000  Level FlightAware ADS-B
Sun 04:28:38 AM 45.3140 -92.8420 322° Northwest 412 474 36,000  Level FlightAware ADS-B
Sun 04:29:18 AM 45.3750 -92.9100 322° Northwest 412 474 36,000  Level FlightAware ADS-B
Sun 04:30:13 AM 45.4570 -93.0030 322° Northwest 412 474 36,000  Level FlightAware ADS-B
Sun 04:30:58 AM 45.5230 -93.0760 322° Northwest 412 474 36,000  Level FlightAware ADS-B
Sun 04:31:43 AM 45.5920 -93.1540 322° Northwest 412 474 36,000  Level FlightAware ADS-B
Sun 04:32:23 AM 45.6510 -93.2210 322° Northwest 412 474 36,000  Level FlightAware ADS-B
Sun 04:33:03 AM 45.7100 -93.2880 322° Northwest 412 474 36,000  Level FlightAware ADS-B
Sun 04:33:48 AM 45.7770 -93.3650 321° Northwest 413 475 36,000  Level FlightAware ADS-B
Sun 04:34:28 AM 45.8370 -93.4340 321° Northwest 413 475 36,000  Level FlightAware ADS-B
Sun 04:35:27 AM 45.9260 -93.5360 321° Northwest 414 476 36,000  Level FlightAware ADS-B
Sun 04:36:10 AM 45.9900 -93.6090 322° Northwest 415 478 36,000  Level FlightAware ADS-B
Sun 04:36:51 AM 46.0500 -93.6790 321° Northwest 416 479 36,000  Level FlightAware ADS-B
Sun 04:37:35 AM 46.1160 -93.7550 321° Northwest 415 478 36,000  Level FlightAware ADS-B
Sun 04:38:15 AM 46.1770 -93.8260 321° Northwest 417 480 36,000  Level FlightAware ADS-B
Sun 04:38:55 AM 46.2360 -93.8950 321° Northwest 418 481 36,000  Level FlightAware ADS-B
Sun 04:39:39 AM 46.3010 -93.9700 321° Northwest 417 480 36,000  Level FlightAware ADS-B
Sun 04:40:19 AM 46.3640 -94.0380 323° Northwest 425 489 36,000  Level FlightAware ADS-B
Sun 04:41:01 AM 46.4370 -94.1000 330° Northwest 430 495 36,000  Level FlightAware ADS-B
Sun 04:41:45 AM 46.5140 -94.1630 331° Northwest 430 495 36,000  Level FlightAware ADS-B
Sun 04:42:23 AM 46.5780 -94.2160 330° Northwest 431 496 36,000  Level FlightAware ADS-B
Sun 04:43:09 AM 46.6590 -94.2850 330° Northwest 433 498 36,000  Level FlightAware ADS-B
Sun 04:43:52 AM 46.7310 -94.3450 330° Northwest 434 499 36,000  Level FlightAware ADS-B
Sun 04:44:33 AM 46.8050 -94.4070 330° Northwest 435 501 36,000  Level FlightAware ADS-B
Sun 04:45:29 AM 46.9010 -94.4880 330° Northwest 435 501 36,000  Level FlightAware ADS-B
Sun 04:46:09 AM 46.9720 -94.5490 330° Northwest 436 502 36,000  Level FlightAware ADS-B
Sun 04:46:53 AM 47.0490 -94.6140 330° Northwest 437 503 36,000  Level FlightAware ADS-B
Sun 04:47:34 AM 47.1190 -94.6750 329° Northwest 438 504 36,000  Level FlightAware ADS-B
Sun 04:48:18 AM 47.1970 -94.7410 330° Northwest 438 504 36,000  Level FlightAware ADS-B
Sun 04:48:56 AM 47.2640 -94.7990 330° Northwest 437 503 36,000  Level FlightAware ADS-B
Sun 04:49:40 AM 47.3400 -94.8640 330° Northwest 437 503 36,000  Level FlightAware ADS-B
Sun 04:50:30 AM 47.4190 -94.9340 329° Northwest 437 503 36,000  Level FlightAware ADS-B
Sun 04:51:21 AM 47.4940 -95.0000 329° Northwest 437 503 36,000  Level FlightAware ADS-B
Sun 04:51:58 AM 47.5490 -95.0490 329° Northwest 437 503 36,000  Level FlightAware ADS-B
Sun 04:52:46 AM 47.6200 -95.1120 329° Northwest 437 503 36,000  Level FlightAware ADS-B
Sun 04:53:22 AM 47.6730 -95.1590 329° Northwest 437 503 36,000  Level FlightAware ADS-B
Sun 04:54:08 AM 47.8030 -95.2690 330° Northwest 433 498 36,000  Level FlightAware ADS-B
Sun 04:54:46 AM 47.8610 -95.3210 329° Northwest 433 498 36,000  Level FlightAware ADS-B
Sun 04:55:32 AM 47.9490 -95.3970 330° Northwest 434 499 36,000  Level FlightAware ADS-B
Sun 04:56:12 AM 48.0180 -95.4590 329° Northwest 435 501 36,000  Level FlightAware ADS-B
Sun 04:56:53 AM 48.0870 -95.5210 329° Northwest 436 502 36,000  Level FlightAware ADS-B
Sun 04:57:38 AM 48.1650 -95.5910 329° Northwest 438 504 36,000  Level FlightAware ADS-B
Sun 04:58:18 AM 48.2350 -95.6530 329° Northwest 439 505 36,000  Level FlightAware ADS-B
Sun 04:59:02 AM 48.3120 -95.7220 329° Northwest 440 506 36,000  Level FlightAware ADS-B
Sun 04:59:42 AM 48.3820 -95.7860 329° Northwest 441 507 36,000  Level FlightAware ADS-B
Sun 05:00:24 AM 48.4560 -95.8530 329° Northwest 443 510 36,000  Level FlightAware ADS-B
Sun 05:01:06 AM 48.5300 -95.9200 329° Northwest 444 511 36,000  Level FlightAware ADS-B
Sun 05:01:48 AM 48.6040 -95.9880 329° Northwest 444 511 36,000  Level FlightAware ADS-B
Sun 05:02:32 AM 48.6810 -96.0580 329° Northwest 444 511 36,000  Level FlightAware ADS-B
Sun 05:03:12 AM 48.7500 -96.1230 328° Northwest 444 511 36,000  Level FlightAware ADS-B
Sun 05:03:56 AM 48.8280 -96.1940 329° Northwest 444 511 36,000  Level FlightAware ADS-B
Sun 05:04:36 AM 48.8970 -96.2580 329° Northwest 444 511 36,000  Level FlightAware ADS-B
Sun 05:05:52 AM 49.0240 -96.3760 329° Northwest 446 513 36,000  Level FlightAware ADS-B
Sun 05:06:36 AM 49.1080 -96.4550 328° Northwest 447 514 36,000  Level FlightAware ADS-B
Sun 05:07:16 AM 49.1790 -96.5210 329° Northwest 446 513 36,000  Level FlightAware ADS-B
Sun 05:08:00 AM 49.2520 -96.5910 328° Northwest 447 514 36,000  Level FlightAware ADS-B
Sun 05:08:37 AM 49.3080 -96.6440 328° Northwest 447 514 36,000  Level FlightAware ADS-B
Sun 05:09:39 AM 49.4000 -96.7330 328° Northwest 447 514 36,000  Level FlightAware ADS-B
Sun 05:10:15 AM 49.4540 -96.7840 328° Northwest 447 514 36,000  Level FlightAware ADS-B
Sun 05:10:56 AM 49.5150 -96.8430 328° Northwest 447 514 36,000  Level FlightAware ADS-B
Sun 05:11:40 AM 49.5800 -96.9060 328° Northwest 447 514 36,000  Level FlightAware ADS-B
Sun 05:12:18 AM 49.7120 -97.0290 329° Northwest 453 521 36,000  Level FlightAware ADS-B
Sun 05:13:06 AM 49.7910 -97.1060 328° Northwest 455 524 36,000  Level FlightAware ADS-B
Sun 05:13:42 AM 49.8460 -97.1590 328° Northwest 455 524 36,000  Level FlightAware ADS-B
Sun 05:14:30 AM 49.9340 -97.2470 327° Northwest 454 522 36,000  Level FlightAware ADS-B
Sun 05:15:28 AM 49.9970 -97.4380 297° West 450 518 36,000  Level FlightAware ADS-B
Sun 05:16:08 AM 50.0340 -97.5490 297° West 452 520 36,000  Level FlightAware ADS-B
Sun 05:16:50 AM 50.0730 -97.6660 297° West 452 520 36,000  Level FlightAware ADS-B
Sun 05:17:26 AM 50.1050 -97.7650 297° West 452 520 36,000  Level FlightAware ADS-B
Sun 05:18:22 AM 50.1630 -97.9340 298° West 454 522 36,000  Level FlightAware ADS-B
Sun 05:19:10 AM 50.2110 -98.0770 298° West 454 522 36,000  Level FlightAware ADS-B
Sun 05:19:54 AM 50.2530 -98.2040 297° West 455 524 36,000  Level FlightAware ADS-B
Sun 05:20:33 AM 50.2860 -98.3040 297° West 455 524 36,000  Level FlightAware ADS-B
Sun 05:21:18 AM 50.3340 -98.4520 297° West 455 524 36,000  Level FlightAware ADS-B
Sun 05:21:58 AM 50.3710 -98.5670 297° West 455 524 36,000  Level FlightAware ADS-B
Sun 05:22:42 AM 50.4130 -98.6970 297° West 457 526 36,000  Level FlightAware ADS-B
Sun 05:23:22 AM 50.4450 -98.8180 293° West 458 527 36,000  Level FlightAware ADS-B
Sun 05:24:06 AM 50.4790 -98.9560 291° West 458 527 36,000  Level FlightAware ADS-B
Sun 05:24:44 AM 50.5070 -99.0730 291° West 458 527 36,000  Level FlightAware ADS-B
Sun 05:25:10 AM 50.5270 -99.1560 291° West 458 527 36,000  Level FlightAware ADS-B
Sun 05:26:28 AM 50.5840 -99.3940 291° West 457 526 36,000  Level FlightAware ADS-B
Sun 05:27:12 AM 50.6170 -99.5320 291° West 457 526 36,000  Level FlightAware ADS-B
Sun 05:27:54 AM 50.6480 -99.6630 291° West 457 526 36,000  Level FlightAware ADS-B
Sun 05:28:34 AM 50.6770 -99.7900 290° West 458 527 36,000  Level FlightAware ADS-B
Sun 05:29:20 AM 50.7110 -99.9320 291° West 459 528 36,000  Level FlightAware ADS-B
Sun 05:30:00 AM 50.7400 -100.0580 290° West 459 528 36,000  Level FlightAware ADS-B
Sun 05:30:40 AM 50.7680 -100.1830 290° West 459 528 36,000  Level FlightAware ADS-B
Sun 05:31:16 AM 50.7930 -100.2920 290° West 460 529 36,000  Level FlightAware ADS-B
Sun 05:32:06 AM 50.8300 -100.4540 290° West 460 529 36,000  Level FlightAware ADS-B
Sun 05:33:00 AM 50.8660 -100.6170 289° West 461 531 36,000  Level FlightAware ADS-B
Sun 05:33:47 AM 50.9010 -100.7700 290° West 462 532 36,000  Level FlightAware ADS-B
Sun 05:34:20 AM 50.9250 -100.8780 289° West 462 532 36,000  Level FlightAware ADS-B
Sun 05:35:21 AM 50.9650 -101.0600 289° West 462 532 36,000  Level FlightAware ADS-B
Sun 05:35:58 AM 50.9870 -101.1610 289° West 462 532 36,000  Level FlightAware ADS-B
Sun 05:36:46 AM 51.0150 -101.2920 289° West 462 532 36,000  Level FlightAware ADS-B
Sun 05:37:22 AM 51.0360 -101.3900 289° West 462 532 36,000  Level FlightAware ADS-B
Sun 05:38:11 AM 51.0650 -101.5240 289° West 462 532 36,000  Level FlightAware ADS-B
Sun 05:38:47 AM 51.0860 -101.6220 289° West 462 532 36,000  Level FlightAware ADS-B
Sun 05:39:36 AM 51.1150 -101.7560 289° West 462 532 36,000  Level FlightAware ADS-B
Sun 05:40:12 AM 51.1370 -101.8550 290° West 462 532 36,000  Level FlightAware ADS-B
Sun 05:41:02 AM 51.1660 -101.9920 289° West 462 532 36,000  Level FlightAware ADS-B
Sun 05:41:38 AM 51.1880 -102.0900 290° West 462 532 36,000  Level FlightAware ADS-B
Sun 05:42:26 AM 51.2160 -102.2220 289° West 462 532 36,000  Level FlightAware ADS-B
Sun 05:43:02 AM 51.2370 -102.3210 289° West 462 532 36,000  Level FlightAware ADS-B
Sun 05:43:50 AM 51.2660 -102.4530 289° West 462 532 36,000  Level FlightAware ADS-B
Sun 05:44:26 AM 51.2870 -102.5510 289° West 462 532 36,000  Level FlightAware ADS-B
Sun 05:47:53 AM 51.4890 -103.4340 290° West 466 536 36,000  Level FlightAware ADS-B
Sun 05:48:41 AM 51.5370 -103.6440 290° West 466 536 36,000  Level FlightAware ADS-B
Sun 05:49:27 AM 51.5690 -103.7850 290° West 466 536 36,000  Level FlightAware ADS-B
Sun 05:50:03 AM 51.5950 -103.9050 289° West 467 537 36,000  Level FlightAware ADS-B
Sun 05:50:51 AM 51.6120 -103.9820 290° West 468 539 36,000  Level FlightAware ADS-B
Sun 05:51:41 AM 51.6550 -104.1780 290° West 468 539 36,000  Level FlightAware ADS-B
Sun 05:52:37 AM 51.7060 -104.4080 290° West 469 540 36,000  Level FlightAware ADS-B
Sun 05:53:42 AM 51.7480 -104.6050 289° West 469 540 36,000  Level FlightAware ADS-B
Sun 05:54:18 AM 51.7700 -104.7060 289° West 469 540 36,000  Level FlightAware ADS-B
Sun 05:54:58 AM 51.8060 -104.8790 289° West 469 540 36,000  Level FlightAware ADS-B
Sun 05:56:15 AM 51.8500 -105.0970 288° West 469 540 36,000  Level FlightAware ADS-B
Sun 05:57:03 AM 51.8780 -105.2330 288° West 469 540 36,000  Level FlightAware ADS-B
Sun 05:57:39 AM 51.8980 -105.3360 288° West 469 540 36,000  Level FlightAware ADS-B
Sun 05:58:27 AM 51.9250 -105.4720 288° West 469 540 36,000  Level FlightAware ADS-B
Sun 05:59:03 AM 51.9460 -105.5750 288° West 469 540 36,000  Level FlightAware ADS-B
Sun 05:59:52 AM 51.9740 -105.7140 288° West 469 540 36,000  Level FlightAware ADS-B
Sun 06:00:29 AM 51.9950 -105.8200 288° West 469 540 36,000  Level FlightAware ADS-B
Sun 06:01:17 AM 52.0220 -105.9560 288° West 469 540 36,000  Level FlightAware ADS-B
Sun 06:01:53 AM 52.0430 -106.0590 288° West 469 540 36,000  Level FlightAware ADS-B
Sun 06:02:41 AM 52.0700 -106.1960 288° West 469 540 36,000  Level FlightAware ADS-B
Sun 06:03:17 AM 52.0910 -106.2990 288° West 469 540 36,000  Level FlightAware ADS-B
Sun 06:04:05 AM 52.1180 -106.4360 288° West 469 540 36,000  Level FlightAware ADS-B
Sun 06:04:29 AM 52.1833 -106.8167 288° West 480 552 36,000  Level Winnipeg Center
Sun 06:05:29 AM 52.2333 -107.0500 289° West 480 552 36,000  Level Winnipeg Center
Sun 06:06:29 AM 52.2667 -107.2167 288° West 470 541 36,000  Level Winnipeg Center
Sun 06:07:29 AM 52.3167 -107.4500 289° West 480 552 36,000  Level Winnipeg Center
Sun 06:08:29 AM 52.3667 -107.6500 292° West 480 552 36,000  Level Winnipeg Center
Sun 06:09:29 AM 52.4000 -107.8333 287° West 480 552 36,000  Level Winnipeg Center
Sun 06:10:29 AM 52.4333 -108.0667 283° West 480 552 36,000  Level Winnipeg Center
Sun 06:11:29 AM 52.4667 -108.2667 285° West 480 552 36,000  Level Winnipeg Center
Sun 06:12:29 AM 52.5167 -108.4667 292° West 480 552 36,000  Level Winnipeg Center
Sun 06:12:45 AM 52.5167 -108.5000 270° West 470 541 36,000  Level Edmonton Center
Sun 06:13:45 AM 52.5667 -108.7167 291° West 470 541 36,000  Level Edmonton Center
Sun 06:14:29 AM 52.6000 -108.9167 285° West 480 552 36,000  Level Winnipeg Center
Sun 06:15:29 AM 52.6500 -109.0833 296° West 480 552 36,000  Level Winnipeg Center
Sun 06:16:29 AM 52.6833 -109.3167 283° West 490 564 36,000  Level Winnipeg Center
Sun 06:17:29 AM 52.7167 -109.5333 284° West 480 552 36,000  Level Winnipeg Center
Sun 06:22:30 AM 52.9320 -110.5510 284° West 36,000  Level FlightAware ADS-B
Sun 06:23:09 AM 52.9560 -110.6880 286° West 472 543 36,000  Level FlightAware ADS-B
Sun 06:24:13 AM 53.0060 -110.8880 293° West 466 536 36,000  Level FlightAware ADS-B
Sun 06:24:54 AM 53.0580 -111.0100 305° West 464 534 36,000  Level FlightAware ADS-B
Sun 06:26:04 AM 53.1440 -111.2060 306° West 467 537 36,000  Level FlightAware ADS-B
Sun 06:26:43 AM 53.1960 -111.3280 305° West 468 539 36,000  Level FlightAware ADS-B
Sun 06:27:24 AM 53.2480 -111.4470 306° West 471 542 36,000  Level FlightAware ADS-B
Sun 06:28:13 AM 53.3060 -111.5830 306° West 473 544 36,000  Level FlightAware ADS-B
Sun 06:28:49 AM 53.3520 -111.6930 305° West 475 547 36,000  Level FlightAware ADS-B
Sun 06:29:31 AM 53.4070 -111.8220 306° West 478 550 36,000  Level FlightAware ADS-B
Sun 06:30:14 AM 53.4650 -111.9600 305° West 480 552 36,000  Level FlightAware ADS-B
Sun 06:30:59 AM 53.5220 -112.0960 305° West 483 556 36,000  Level FlightAware ADS-B
Sun 06:31:39 AM 53.5740 -112.2200 305° West 485 558 36,000  Level FlightAware ADS-B
Sun 06:32:22 AM 53.6290 -112.3530 305° West 488 562 36,000  Level FlightAware ADS-B
Sun 06:33:05 AM 53.6800 -112.4780 305° West 490 564 36,000  Level FlightAware ADS-B
Sun 06:33:42 AM 53.7320 -112.6040 305° West 491 565 36,000  Level FlightAware ADS-B
Sun 06:34:27 AM 53.7910 -112.7480 305° West 492 566 36,000  Level FlightAware ADS-B
Sun 06:35:12 AM 53.8470 -112.8880 304° West 494 568 36,000  Level FlightAware ADS-B
Sun 06:35:52 AM 53.8990 -113.0170 304° West 495 570 36,000  Level FlightAware ADS-B
Sun 06:36:32 AM 53.9500 -113.1440 304° West 495 570 36,000  Level FlightAware ADS-B
Sun 06:37:17 AM 54.0080 -113.2890 304° West 495 570 36,000  Level FlightAware ADS-B
Sun 06:37:57 AM 54.0580 -113.4140 304° West 495 570 36,000  Level FlightAware ADS-B
Sun 06:38:37 AM 54.1110 -113.5480 304° West 494 568 36,000  Level FlightAware ADS-B
Sun 06:39:22 AM 54.1680 -113.6950 304° West 493 567 36,000  Level FlightAware ADS-B
Sun 06:40:02 AM 54.2120 -113.8080 304° West 492 566 36,000  Level FlightAware ADS-B
Sun 06:41:02 AM 54.2930 -114.0150 304° West 490 564 36,000  Level FlightAware ADS-B
Sun 06:41:37 AM 54.3350 -114.1230 304° West 489 563 36,000  Level FlightAware ADS-B
Sun 06:42:23 AM 54.3930 -114.2760 303° West 489 563 36,000  Level FlightAware ADS-B
Sun 06:43:03 AM 54.4440 -114.4080 304° West 489 563 36,000  Level FlightAware ADS-B
Sun 06:43:48 AM 54.4990 -114.5540 303° West 487 560 36,000  Level FlightAware ADS-B
Sun 06:44:43 AM 54.5630 -114.7230 303° West 487 560 36,000  Level FlightAware ADS-B
Sun 06:45:28 AM 54.6150 -114.8640 303° West 486 559 36,000  Level FlightAware ADS-B
Sun 06:45:49 AM 54.6410 -114.9330 303° West 486 559 36,000  Level FlightAware ADS-B
Sun 06:46:36 AM 54.6940 -115.0770 303° West 485 558 36,000  Level FlightAware ADS-B
Sun 06:47:44 AM 54.7840 -115.3200 303° West 483 556 36,000  Level FlightAware ADS-B
Sun 06:48:39 AM 54.8470 -115.4900 303° West 483 556 36,000  Level FlightAware ADS-B
Sun 06:49:25 AM 54.9020 -115.6440 302° West 483 556 36,000  Level FlightAware ADS-B
Sun 06:50:04 AM 54.9420 -115.7530 303° West 483 556 36,000  Level FlightAware ADS-B
Sun 06:51:05 AM 55.0030 -115.9240 302° West 483 556 36,000  Level FlightAware ADS-B
Sun 06:55:56 AM 55.3600 -116.9420 302° West 36,000  Level FlightAware ADS-B
Sun 06:56:46 AM 55.3833 -117.1167 302° West 480 552 36,000  Level Edmonton Center
Sun 06:57:46 AM 55.4500 -117.3500 297° West 470 541 36,000  Level Edmonton Center
Sun 06:58:46 AM 55.5167 -117.5333 303° West 470 541 36,000  Level Edmonton Center
Sun 06:59:46 AM 55.5833 -117.7333 301° West 470 541 36,000  Level Edmonton Center
Sun 07:00:46 AM 55.6667 -117.9500 304° West 470 541 36,000  Level Edmonton Center
Sun 07:01:46 AM 55.7333 -118.1500 301° West 470 541 36,000  Level Edmonton Center
Sun 07:02:46 AM 55.7833 -118.3500 294° West 470 541 36,000  Level Edmonton Center
Sun 07:03:46 AM 55.8500 -118.5667 299° West 470 541 36,000  Level Edmonton Center
Sun 07:04:46 AM 55.9333 -118.7667 307° West 470 541 36,000  Level Edmonton Center
Sun 07:05:46 AM 56.0000 -118.9833 299° West 470 541 36,000  Level Edmonton Center
Sun 07:06:46 AM 56.0500 -119.1833 294° West 470 541 36,000  Level Edmonton Center
Sun 07:07:46 AM 56.1167 -119.4000 299° West 470 541 36,000  Level Edmonton Center
Sun 07:08:46 AM 56.1833 -119.6167 299° West 470 541 36,000  Level Edmonton Center
Sun 07:09:46 AM 56.2333 -119.7833 298° West 470 541 36,000  Level Edmonton Center
Sun 07:10:46 AM 56.3167 -120.0167 303° West 470 541 36,000  Level Edmonton Center
Sun 07:11:46 AM 56.3833 -120.2167 301° West 470 541 36,000  Level Edmonton Center
Sun 07:12:46 AM 56.4333 -120.4333 293° West 470 541 36,000  Level Edmonton Center
Sun 07:13:46 AM 56.5000 -120.6500 299° West 470 541 36,000  Level Edmonton Center
Sun 07:14:46 AM 56.5500 -120.8667 293° West 470 541 36,000  Level Edmonton Center
Sun 07:15:46 AM 56.6333 -121.0833 305° West 470 541 36,000  Level Edmonton Center
Sun 07:16:46 AM 56.6833 -121.3000 293° West 480 552 36,000  Level Edmonton Center
Sun 07:17:46 AM 56.7500 -121.5167 299° West 470 541 36,000  Level Edmonton Center
Sun 07:18:46 AM 56.8000 -121.7333 293° West 470 541 36,000  Level Edmonton Center
Sun 07:19:46 AM 56.8667 -121.9500 299° West 470 541 36,000  Level Edmonton Center
Sun 07:20:46 AM 56.9333 -122.1500 301° West 470 541 36,000  Level Edmonton Center
Sun 07:21:46 AM 56.9833 -122.3667 293° West 470 541 36,000  Level Edmonton Center
Sun 07:22:46 AM 57.0500 -122.5833 300° West 470 541 36,000  Level Edmonton Center
Sun 07:23:46 AM 57.1000 -122.8000 293° West 470 541 36,000  Level Edmonton Center
Sun 07:24:46 AM 57.1500 -123.0167 293° West 470 541 36,000  Level Edmonton Center
Sun 07:25:46 AM 57.2167 -123.2500 298° West 470 541 36,000  Level Edmonton Center
Sun 07:26:46 AM 57.2833 -123.4833 298° West 470 541 36,000  Level Edmonton Center
Sun 07:27:46 AM 57.3333 -123.7000 293° West 470 541 36,000  Level Edmonton Center
Sun 07:28:46 AM 57.3833 -123.8833 297° West 470 541 36,000  Level Edmonton Center
Sun 07:29:46 AM 57.4333 -124.1167 292° West 460 529 36,000  Level Edmonton Center
Sun 07:30:46 AM 57.5000 -124.3333 300° West 460 529 36,000  Level Edmonton Center
Sun 07:31:46 AM 57.5500 -124.5333 295° West 460 529 36,000  Level Edmonton Center
Sun 07:32:46 AM 57.6167 -124.7667 298° West 460 529 36,000  Level Edmonton Center
Sun 07:33:46 AM 57.6667 -125.0000 292° West 470 541 36,000  Level Edmonton Center
Sun 07:35:00 AM 57.7446 -125.2438 301° West  Level FlightAware Approximate
Sun 07:42:00 AM 58.1568 -126.6692 293° West  Level FlightAware Approximate
Sun 07:43:00 AM 58.2035 -126.8852 292° West  Level FlightAware Approximate
Sun 07:44:00 AM 58.2498 -127.1018 292° West  Level FlightAware Approximate
Sun 07:45:00 AM 58.2957 -127.3189 292° West  Level FlightAware Approximate
Sun 07:46:00 AM 58.3412 -127.5365 292° West  Level FlightAware Approximate
Sun 07:47:00 AM 58.3864 -127.7548 292° West  Level FlightAware Approximate
Sun 07:48:00 AM 58.4312 -127.9735 291° West  Level FlightAware Approximate
Sun 07:49:00 AM 58.4756 -128.1929 291° West  Level FlightAware Approximate
Sun 07:50:00 AM 58.5197 -128.4128 291° West  Level FlightAware Approximate
Sun 07:51:00 AM 58.5634 -128.6332 291° West  Level FlightAware Approximate
Sun 07:52:00 AM 58.6067 -128.8542 291° West  Level FlightAware Approximate
Sun 07:53:00 AM 58.6496 -129.0757 291° West  Level FlightAware Approximate
Sun 07:54:00 AM 58.6921 -129.2978 290° West  Level FlightAware Approximate
Sun 07:55:00 AM 58.7343 -129.5204 290° West  Level FlightAware Approximate
Sun 07:56:00 AM 58.7760 -129.7436 290° West  Level FlightAware Approximate
Sun 07:57:00 AM 58.8174 -129.9673 290° West  Level FlightAware Approximate
Sun 07:58:00 AM 58.8561 -130.1922 288° West  Level FlightAware Approximate
Sun 07:59:00 AM 58.8945 -130.4177 288° West  Level FlightAware Approximate
Sun 08:00:00 AM 58.9324 -130.6436 288° West  Level FlightAware Approximate
Sun 08:01:00 AM 58.9699 -130.8701 288° West  Level FlightAware Approximate
Sun 08:02:00 AM 59.0071 -131.0970 288° West  Level FlightAware Approximate
Sun 08:03:00 AM 59.0438 -131.3244 288° West  Level FlightAware Approximate
Sun 08:04:00 AM 59.0801 -131.5523 287° West  Level FlightAware Approximate
Sun 08:05:00 AM 59.1161 -131.7807 287° West  Level FlightAware Approximate
Sun 08:06:00 AM 59.1516 -132.0095 287° West  Level FlightAware Approximate
Sun 08:07:00 AM 59.1868 -132.2388 287° West  Level FlightAware Approximate
Sun 08:08:00 AM 59.2215 -132.4686 287° West  Level FlightAware Approximate
Sun 08:09:00 AM 59.2558 -132.6989 286° West  Level FlightAware Approximate
Sun 08:10:00 AM 59.2897 -132.9296 286° West  Level FlightAware Approximate
Sun 08:11:00 AM 59.3260 -133.1625 287° West  Level FlightAware Approximate
Sun 08:11:58 AM 59.4500 -133.9833 286° West 490 564 36,000  Level Anchorage Center
Sun 08:12:00 AM 59.3624 -133.3922 287° West  Level FlightAware Approximate
Sun 08:12:59 AM 59.5000 -134.2333 292° West 490 564 36,000  Level Anchorage Center
Sun 08:13:00 AM 59.3984 -133.6225 287° West  Level FlightAware Approximate
Sun 08:13:59 AM 59.5333 -134.5000 284° West 490 564 36,000  Level Anchorage Center
Sun 08:14:00 AM 59.4340 -133.8532 287° West  Level FlightAware Approximate
Sun 08:15:00 AM 59.4692 -134.0844 287° West  Level FlightAware Approximate
Sun 08:15:00 AM 59.5667 -134.7500 285° West 490 564 36,000  Level Anchorage Center
Sun 08:16:00 AM 59.5039 -134.3161 287° West  Level FlightAware Approximate
Sun 08:16:00 AM 59.6000 -135.0167 284° West 490 564 36,000  Level Anchorage Center
Sun 08:17:00 AM 59.5383 -134.5483 286° West  Level FlightAware Approximate
Sun 08:17:00 AM 59.6333 -135.2667 285° West 490 564 36,000  Level Anchorage Center
Sun 08:18:01 AM 59.6833 -135.5333 290° West 490 564 36,000  Level Anchorage Center
Sun 08:19:01 AM 59.7167 -135.8000 284° West 490 564 36,000  Level Anchorage Center
Sun 08:20:01 AM 59.7500 -136.0500 285° West 490 564 36,000  Level Anchorage Center
Sun 08:21:02 AM 59.7833 -136.3167 284° West 490 564 36,000  Level Anchorage Center
Sun 08:22:02 AM 59.8167 -136.5833 284° West 490 564 36,000  Level Anchorage Center
Sun 08:23:02 AM 59.8500 -136.8500 284° West 490 564 36,000  Level Anchorage Center
Sun 08:24:03 AM 59.8833 -137.1167 284° West 490 564 36,000  Level Anchorage Center
Sun 08:25:03 AM 59.9167 -137.3667 285° West 490 564 36,000  Level Anchorage Center
Sun 08:26:04 AM 59.9500 -137.6333 284° West 490 564 36,000  Level Anchorage Center
Sun 08:27:04 AM 59.9833 -137.9000 284° West 480 552 36,000  Level Anchorage Center
Sun 08:28:04 AM 60.0000 -138.1667 277° West 490 564 36,000  Level Anchorage Center
Sun 08:29:05 AM 60.0333 -138.4333 284° West 480 552 36,000  Level Anchorage Center
Sun 08:30:05 AM 60.0667 -138.7000 284° West 490 564 36,000  Level Anchorage Center
Sun 08:31:05 AM 60.1000 -138.9667 284° West 490 564 36,000  Level Anchorage Center
Sun 08:33:06 AM 60.1500 -139.5000 281° West 490 564 36,000  Level Anchorage Center
Sun 08:34:06 AM 60.1833 -139.7667 284° West 490 564 36,000  Level Anchorage Center
Sun 08:35:07 AM 60.2167 -140.0333 284° West 490 564 36,000  Level Anchorage Center
Sun 08:36:07 AM 60.2333 -140.3000 277° West 490 564 36,000  Level Anchorage Center
Sun 08:37:08 AM 60.2667 -140.5667 284° West 490 564 36,000  Level Anchorage Center
Sun 08:38:08 AM 60.3000 -140.9000 282° West 490 564 36,000  Level Anchorage Center
Sun 08:39:08 AM 60.3167 -141.1667 277° West 490 564 36,000  Level Anchorage Center
Sun 08:40:09 AM 60.3500 -141.4500 283° West 490 564 36,000  Level Anchorage Center
Sun 08:41:09 AM 60.3667 -141.7167 277° West 490 564 36,000  Level Anchorage Center
Sun 08:42:09 AM 60.3833 -141.9833 277° West 490 564 36,000  Level Anchorage Center
Sun 08:43:10 AM 60.4167 -142.2667 284° West 490 564 36,000  Level Anchorage Center
Sun 08:45:10 AM 60.4500 -142.8000 277° West 490 564 36,000  Level Anchorage Center
Sun 08:46:11 AM 60.4667 -143.0333 278° West 480 552 36,000  Level Anchorage Center
Sun 08:47:11 AM 60.4833 -143.3167 277° West 500 575 36,000  Level Anchorage Center
Sun 08:48:11 AM 60.5167 -143.5833 284° West 490 564 36,000  Level Anchorage Center
Sun 08:49:11 AM 60.5333 -143.8667 277° West 490 564 36,000  Level Anchorage Center
Sun 08:50:12 AM 60.5500 -144.2000 276° West 490 564 36,000  Level Anchorage Center
Sun 08:51:12 AM 60.5667 -144.4667 277° West 490 564 36,000  Level Anchorage Center
Sun 08:52:12 AM 60.5833 -144.7333 277° West 490 564 36,000  Level Anchorage Center
Sun 08:53:13 AM 60.6000 -145.0167 277° West 490 564 36,000  Level Anchorage Center
Sun 08:54:13 AM 60.6167 -145.2833 277° West 480 552 36,000  Level Anchorage Center
Sun 08:55:13 AM 60.6333 -145.5667 277° West 490 564 36,000  Level Anchorage Center
Sun 08:56:14 AM 60.6500 -145.8500 277° West 490 564 36,000 -446 Level Anchorage Center
Sun 08:57:14 AM 60.6667 -146.1333 277° West 500 575 35,100 -1,659 Descending Anchorage Center
Sun 09:02:59 AM 60.7230 -147.6690 277° West 436 502 24,800 -1,781 Descending FlightAware ADS-B
Sun 09:03:38 AM 60.7270 -147.8310 273° West 431 496 23,700 -795 Descending FlightAware ADS-B
Sun 09:04:22 AM 60.7310 -147.9830 273° West 431 496 23,700  Level FlightAware ADS-B
Sun 09:04:59 AM 60.7350 -148.1110 274° West 431 496 23,700 -2,550 Level FlightAware ADS-B
Sun 09:05:42 AM 60.7540 -148.3190 281° West 407 468 20,300 -3,440 Descending FlightAware ADS-B
Sun 09:06:14 AM 60.7700 -148.4280 287° West 399 459 19,400 -1,818 Descending FlightAware ADS-B
Sun 09:06:48 AM 60.7890 -148.5570 287° West 391 450 18,300 -2,080 Descending FlightAware ADS-B
Sun 09:07:29 AM 60.8100 -148.6970 287° West 390 449 16,800 -2,024 Descending FlightAware ADS-B
Sun 09:08:11 AM 60.8310 -148.8460 286° West 376 433 15,500 -1,793 Descending FlightAware ADS-B
Sun 09:08:56 AM 60.8540 -149.0000 287° West 367 422 14,200 -1,694 Descending FlightAware ADS-B
Sun 09:09:36 AM 60.8710 -149.1250 286° West 358 412 13,100 -1,500 Descending FlightAware ADS-B
Sun 09:10:04 AM 60.8850 -149.2210 287° West 349 402 12,500 -618 Descending FlightAware ADS-B
Sun 09:10:44 AM 60.9090 -149.3380 293° West 340 391 12,400 -214 Descending FlightAware ADS-B
Sun 09:11:00 AM 60.9320 -149.3650 330° Northwest 340 391 12,300 621 Descending FlightAware ADS-B
Sun 09:11:42 AM 60.9690 -149.4290 320° Northwest 350 403 13,000 828 Climbing FlightAware ADS-B
Sun 09:11:58 AM 60.9790 -149.5140 284° West 347 399 13,100 -1,091 Climbing FlightAware ADS-B
Sun 09:12:37 AM 60.9840 -149.6380 275° West 342 394 12,000 -1,714 Descending FlightAware ADS-B
Sun 09:13:22 AM 60.9890 -149.7860 274° West 338 389 10,700 -1,726 Descending FlightAware ADS-B
Sun 09:13:50 AM 60.9930 -149.8750 275° West 333 383 9,900 -923 Descending FlightAware ADS-B
Sun 09:14:14 AM 61.0020 -149.9450 285° West 298 343 9,900 -750 Level FlightAware ADS-B
Sun 09:14:30 AM 61.0090 -149.9850 290° West 284 327 9,400 -2,318 Descending FlightAware ADS-B
Sun 09:14:58 AM 61.0210 -150.0540 290° West 286 329 8,200 -2,786 Descending FlightAware ADS-B
Sun 09:15:26 AM 61.0350 -150.1300 291° West 291 335 6,800 -2,769 Descending FlightAware ADS-B
Sun 09:15:37 AM 61.0390 -150.1540 289° West 288 331 6,400 -2,286 Descending FlightAware ADS-B
Sun 09:16:08 AM 61.0540 -150.2370 291° West 276 318 5,200 -2,339 Descending FlightAware ADS-B
Sun 09:16:36 AM 61.0640 -150.3070 286° West 269 310 4,100 -2,280 Descending FlightAware ADS-B
Sun 09:16:58 AM 61.0760 -150.3520 299° West 253 291 3,300 -1,784 Descending FlightAware ADS-B
Sun 09:17:13 AM 61.0870 -150.3650 330° Northwest 247 284 3,000 -1,957 Descending FlightAware ADS-B
Sun 09:17:44 AM 61.1260 -150.3670 359° North 238 274 1,800 -1,368 Descending FlightAware ADS-B
Sun 09:18:10 AM 61.1450 -150.3630 North 219 252 1,700 -146 Descending FlightAware ADS-B
Sun 09:18:25 AM 61.1600 -150.3320 45° Northeast 214 246 1,700  Level FlightAware ADS-B
Sun 09:18:44 AM 61.1670 -150.2970 67° East 196 226 1,700 128 Level FlightAware ADS-B
Sun 09:19:12 AM 61.1670 -150.2480 90° East 173 199 1,800 -150 Climbing FlightAware ADS-B
Sun 09:19:24 AM 61.1670 -150.2280 90° East 164 189 1,600 -789 Descending FlightAware ADS-B
Sun 09:19:50 AM 61.1670 -150.1900 90° East 153 176 1,300 -764 Descending FlightAware ADS-B
Sun 09:20:19 AM 61.1680 -150.1510 87° East 134 154 900 -783 Descending FlightAware ADS-B
Sun 09:20:59 AM 61.1680 -150.0980 90° East 136 157 400 -700 Descending FlightAware ADS-B
Sun 09:21:19 AM 61.1680 -150.0740 90° East 135 155 200 -600 Descending FlightAware ADS-B
Sun 09:21:54 AM 61.1680 -150.0290 90° East 120 138 -343 Descending FlightAware ADS-B
Sun 09:22:20 AM 61.1680 -150.0090 90° East 58 67  Level FlightAware ADS-B
Sun 09:22:54 AM 61.1680 -149.9960 90° East 24 28  Level FlightAware ADS-B
Sun 09:23:47 AM 61.1710 -149.9950 North 16 18  Level FlightAware ADS-B
Sun 09:24:15 AM 61.1740 -149.9960 351° North  Level FlightAware ADS-B
Sun 09:24:46 AM 61.1770 -149.9980 342° North 26 30  Level FlightAware ADS-B
Sun 09:24:57 AM 61.1780 -149.9990 334° Northwest 28 32  Level FlightAware ADS-B
Sun 09:25:22 AM 61.1820 -150.0010 346° North 30 35  Level FlightAware ADS-B
Sun 09:26:09 AM 61.1880 -150.0040 346° North 31 36  Level FlightAware ADS-B
Sun 09:26:38 AM 61.1910 -150.0060 342° North 25 29  Level FlightAware ADS-B
Sun 09:27:07 AM 61.1920 -150.0030 55° Northeast 18 21  Level FlightAware ADS-B
Sun 09:28:18 AM 61.1930 -150.0020 26° Northeast 16 18  Level FlightAware ADS-B
Sun 09:30:00 AM 61.1741 -149.9982 65° Northeast  Level Estimated
Sun 09:31:00 AM 61.1741 -149.9982 65° Northeast  Level Estimated
Sun 09:32:00 AM 61.1741 -149.9982 65° Northeast  Level Estimated

Login

Don't have an account? Register now (free) for customized features, flight alerts, and more!